Time;durP1;ratioP1;P1;durP2;ratioP2;P2;SDS_P1;SDS_P2;PMS_P1;PMS_P2;Temp;Humidity;BMP_temperature;BMP_pressure;BME280_temperature;BME280_humidity;BME280_pressure;Samples;Min_cycle;Max_cycle;Signal;HPM_P1;HPM_P2
2023/09/08 00:01:16;;;;;;;10.93;5.78;;;17.80;96.70;;;;;;4908660;29;20350;-77
2023/09/08 00:03:41;;;;;;;8.40;6.15;;;17.80;97.10;;;;;;4907881;29;20222;-77
2023/09/08 00:06:07;;;;;;;10.38;6.40;;;17.70;97.40;;;;;;4908538;29;20040;-77
2023/09/08 00:08:33;;;;;;;10.43;6.65;;;17.70;97.20;;;;;;4891263;29;20341;-77
2023/09/08 00:10:58;;;;;;;10.00;6.20;;;17.60;97.60;;;;;;4908268;29;20079;-77
2023/09/08 00:13:24;;;;;;;9.70;6.13;;;17.50;97.80;;;;;;4908280;29;20036;-77
2023/09/08 00:15:50;;;;;;;10.55;6.28;;;17.50;97.60;;;;;;4907754;29;20036;-77
2023/09/08 00:18:15;;;;;;;9.45;5.82;;;17.50;97.40;;;;;;4908171;29;20382;-77
2023/09/08 00:20:41;;;;;;;10.00;6.78;;;17.40;97.30;;;;;;4908011;29;20036;-77
2023/09/08 00:23:07;;;;;;;8.60;5.80;;;17.40;97.80;;;;;;4907211;29;20219;-77
2023/09/08 00:25:34;;;;;;;10.52;6.07;;;17.40;97.60;;;;;;4906813;29;20047;-76
2023/09/08 00:28:00;;;;;;;10.27;6.38;;;17.40;98.10;;;;;;4908154;29;20047;-76
2023/09/08 00:30:26;;;;;;;8.13;6.03;;;17.30;98.10;;;;;;4907872;29;20060;-77
2023/09/08 05:42:06;;;;;;;9.85;7.05;;;15.90;99.90;;;;;;5707327;23;20090;-76
2023/09/08 05:44:33;;;;;;;10.73;8.05;;;16.00;99.90;;;;;;4952509;29;20079;-77
2023/09/08 05:46:59;;;;;;;9.45;7.20;;;16.10;99.90;;;;;;4956852;29;20241;-76
2023/09/08 05:49:25;;;;;;;11.00;7.40;;;16.10;99.90;;;;;;4947432;29;20124;-76
2023/09/08 05:51:51;;;;;;;10.57;7.60;;;16.20;99.90;;;;;;4948975;29;20028;-76
2023/09/08 05:54:17;;;;;;;12.20;8.73;;;16.20;99.90;;;;;;4946817;29;20055;-76
2023/09/08 05:56:43;;;;;;;12.52;7.40;;;16.30;99.90;;;;;;4947541;29;20066;-76
2023/09/08 05:59:09;;;;;;;12.48;7.82;;;16.30;99.90;;;;;;4948752;29;20051;-76
2023/09/08 06:01:36;;;;;;;13.43;8.02;;;16.40;99.90;;;;;;4948641;29;20328;-76
2023/09/08 06:04:05;;;;;;;11.73;7.47;;;16.60;99.90;;;;;;4946745;29;20031;-76
2023/09/08 06:06:31;;;;;;;9.07;7.18;;;16.70;99.90;;;;;;4931471;29;20221;-76
2023/09/08 06:08:58;;;;;;;12.05;7.70;;;16.70;99.90;;;;;;4946715;29;20027;-76
2023/09/08 06:11:25;;;;;;;11.63;7.35;;;16.70;99.90;;;;;;4931585;29;20191;-76
2023/09/08 06:13:52;;;;;;;9.82;7.03;;;16.70;99.90;;;;;;4947151;29;20107;-76
2023/09/08 06:16:18;;;;;;;10.60;7.00;;;16.70;99.90;;;;;;4932502;29;20047;-76
2023/09/08 06:18:45;;;;;;;10.75;7.70;;;16.80;99.90;;;;;;4931431;29;20261;-76
2023/09/08 06:21:16;;;;;;;12.63;7.93;;;16.90;99.90;;;;;;4946127;29;20042;-76
2023/09/08 06:23:41;;;;;;;13.02;7.85;;;16.90;99.90;;;;;;4947127;29;20102;-77
2023/09/08 06:26:07;;;;;;;10.75;7.32;;;16.90;99.90;;;;;;4947214;29;20333;-76
2023/09/08 06:28:35;;;;;;;11.37;7.10;;;17.10;99.90;;;;;;4931387;29;20027;-76
2023/09/08 06:31:02;;;;;;;10.65;7.82;;;17.20;99.90;;;;;;4947843;29;20042;-77
2023/09/08 06:33:29;;;;;;;13.02;7.13;;;17.30;99.90;;;;;;4947163;29;20038;-76
2023/09/08 06:35:55;;;;;;;10.18;7.63;;;17.40;99.90;;;;;;4947413;29;20028;-75
2023/09/08 06:38:21;;;;;;;14.38;8.95;;;17.60;99.90;;;;;;4950756;29;20075;-76
2023/09/08 06:40:48;;;;;;;17.60;10.55;;;17.70;99.90;;;;;;4938168;29;20028;-76
2023/09/08 06:43:14;;;;;;;19.15;9.60;;;17.80;99.90;;;;;;4963396;29;20043;-76
2023/09/08 06:45:50;;;;;;;14.65;8.93;;;17.80;99.90;;;;;;4956157;29;20066;-76
2023/09/08 06:48:16;;;;;;;14.23;9.52;;;17.80;99.90;;;;;;4960337;28;20020;-77
2023/09/08 06:50:41;;;;;;;17.10;9.35;;;18.00;99.90;;;;;;4970690;28;20023;-77
2023/09/08 06:53:07;;;;;;;17.92;10.15;;;18.10;99.90;;;;;;4966475;28;20087;-77
2023/09/08 06:55:33;;;;;;;15.80;9.18;;;18.10;99.90;;;;;;4951069;29;20051;-77
2023/09/08 06:57:59;;;;;;;12.85;8.95;;;18.20;99.90;;;;;;4934978;29;20028;-77
2023/09/08 07:00:24;;;;;;;14.50;9.63;;;18.20;99.90;;;;;;4950230;29;20035;-77
2023/09/08 07:02:52;;;;;;;16.25;9.10;;;18.20;99.90;;;;;;4946356;29;20066;-76
2023/09/08 07:05:18;;;;;;;17.25;9.82;;;18.30;99.90;;;;;;4946154;29;20027;-76
2023/09/08 07:07:44;;;;;;;12.07;8.65;;;18.50;99.90;;;;;;4947632;29;20117;-76
2023/09/08 07:10:10;;;;;;;13.70;8.95;;;18.70;99.90;;;;;;4946815;29;20055;-77
2023/09/08 07:12:36;;;;;;;16.17;9.13;;;18.70;99.90;;;;;;4947096;29;20091;-76
2023/09/08 07:15:02;;;;;;;15.15;8.50;;;18.90;99.90;;;;;;4946963;29;20075;-74
2023/09/08 07:17:28;;;;;;;12.65;8.90;;;19.00;99.90;;;;;;4936562;29;20102;-76
2023/09/08 07:19:54;;;;;;;18.20;9.15;;;19.10;99.90;;;;;;4927699;29;20043;-74
2023/09/08 07:22:20;;;;;;;13.40;8.00;;;19.20;99.90;;;;;;4926226;29;20044;-74
2023/09/08 07:24:46;;;;;;;10.90;8.88;;;19.30;99.90;;;;;;4927949;29;20055;-75
2023/09/08 07:27:14;;;;;;;12.93;8.05;;;19.50;99.90;;;;;;4926145;29;20020;-76
2023/09/08 07:29:41;;;;;;;11.80;9.02;;;19.60;99.90;;;;;;4926627;29;20039;-75
2023/09/08 07:32:07;;;;;;;13.82;8.68;;;19.70;99.90;;;;;;4925578;29;20047;-75
2023/09/08 07:34:33;;;;;;;12.98;8.90;;;19.80;99.70;;;;;;4911066;29;20246;-75
2023/09/08 07:37:00;;;;;;;11.95;8.15;;;19.90;99.50;;;;;;4926032;29;20047;-75
2023/09/08 07:39:26;;;;;;;12.02;8.20;;;20.10;99.10;;;;;;4926278;29;20253;-76
2023/09/08 07:41:53;;;;;;;10.52;8.18;;;20.10;98.90;;;;;;4926125;29;20032;-74
2023/09/08 07:44:19;;;;;;;13.27;7.45;;;20.20;98.70;;;;;;4925453;29;20079;-75
2023/09/08 07:46:48;;;;;;;15.70;8.88;;;20.30;98.40;;;;;;4926189;29;20040;-75
2023/09/08 07:49:15;;;;;;;12.43;7.93;;;20.30;98.40;;;;;;4926818;29;20079;-76
2023/09/08 07:51:40;;;;;;;12.70;7.85;;;20.40;98.40;;;;;;4927529;29;20036;-74
2023/09/08 07:54:06;;;;;;;10.55;7.63;;;20.50;98.20;;;;;;4926642;29;20032;-75
2023/09/08 07:56:32;;;;;;;11.20;6.80;;;20.60;97.90;;;;;;4926730;29;20329;-75
2023/09/08 07:58:58;;;;;;;13.25;8.18;;;20.70;97.70;;;;;;4926511;29;20099;-75
2023/09/08 08:01:24;;;;;;;13.35;7.50;;;20.70;97.70;;;;;;4926808;29;20135;-74
2023/09/08 08:03:49;;;;;;;12.27;7.65;;;20.80;97.70;;;;;;4927171;29;20043;-74
2023/09/08 08:06:15;;;;;;;10.93;7.10;;;20.90;97.50;;;;;;4926242;29;20047;-75
2023/09/08 08:08:41;;;;;;;17.33;8.43;;;21.00;97.30;;;;;;4926318;29;20080;-73
2023/09/08 08:11:14;;;;;;;11.55;7.10;;;21.10;97.10;;;;;;4941198;29;20270;-73
2023/09/08 08:13:40;;;;;;;12.80;7.60;;;21.20;96.90;;;;;;4928556;29;20134;-74
2023/09/08 08:16:06;;;;;;;11.38;7.38;;;21.40;96.80;;;;;;4925933;29;20099;-74
2023/09/08 08:18:31;;;;;;;13.85;7.32;;;21.40;96.70;;;;;;4944209;29;20048;-74
2023/09/08 08:20:57;;;;;;;13.23;7.38;;;21.60;96.40;;;;;;4944998;29;20043;-73
2023/09/08 08:23:23;;;;;;;9.93;7.40;;;21.70;96.10;;;;;;4945418;29;20031;-74
2023/09/08 08:25:49;;;;;;;13.13;7.43;;;21.90;95.70;;;;;;4945308;29;20035;-73
2023/09/08 08:28:15;;;;;;;10.48;7.07;;;21.90;95.60;;;;;;4944781;29;20027;-73
2023/09/08 08:30:41;;;;;;;11.57;6.97;;;22.10;95.20;;;;;;4945248;29;20090;-73
2023/09/08 08:33:06;;;;;;;13.50;7.15;;;22.20;95.30;;;;;;4943612;29;20043;-73
2023/09/08 08:35:32;;;;;;;12.23;7.10;;;22.30;95.10;;;;;;4945538;29;20043;-75
2023/09/08 08:37:59;;;;;;;9.70;7.45;;;22.40;95.10;;;;;;4943732;29;20032;-75
2023/09/08 08:40:26;;;;;;;11.35;7.15;;;22.60;94.80;;;;;;4945348;29;20042;-75
2023/09/08 08:42:58;;;;;;;12.45;6.68;;;22.70;94.40;;;;;;4944085;29;20152;-74
2023/09/08 08:45:25;;;;;;;10.93;7.10;;;22.80;93.60;;;;;;4924947;29;20040;-74
2023/09/08 08:47:52;;;;;;;9.00;6.72;;;22.90;94.00;;;;;;4925265;29;20032;-73
2023/09/08 08:50:18;;;;;;;10.60;7.20;;;23.10;93.80;;;;;;4924406;29;20072;-74
2023/09/08 08:52:45;;;;;;;11.88;6.78;;;23.10;93.40;;;;;;4926243;29;20411;-73
2023/09/08 08:55:11;;;;;;;10.88;6.50;;;23.10;93.30;;;;;;4924551;29;20042;-74
2023/09/08 08:57:40;;;;;;;10.65;7.35;;;23.20;93.40;;;;;;4926111;29;20230;-74
2023/09/08 09:00:12;;;;;;;11.35;6.72;;;23.20;93.20;;;;;;4924552;29;20032;-76
2023/09/08 09:02:40;;;;;;;10.50;7.00;;;23.40;92.80;;;;;;4925229;29;20305;-73
2023/09/08 09:05:11;;;;;;;12.30;6.25;;;23.50;92.70;;;;;;4924562;29;20370;-73
2023/09/08 09:07:37;;;;;;;9.68;6.60;;;23.60;92.70;;;;;;4928305;29;20028;-74
2023/09/08 09:10:04;;;;;;;13.27;6.63;;;23.70;92.20;;;;;;4932813;29;20079;-77
2023/09/08 09:12:30;;;;;;;14.05;6.03;;;23.80;92.10;;;;;;4940117;29;20276;-73
2023/09/08 09:14:58;;;;;;;9.30;5.50;;;23.90;91.70;;;;;;4945404;29;20140;-75
2023/09/08 09:17:24;;;;;;;;;;;24.00;91.30;;;;;;4936862;29;20255;-75
2023/09/08 09:19:49;;;;;;;10.85;6.18;;;24.10;91.30;;;;;;4926030;29;19911;-76
2023/09/08 09:22:20;;;;;;;11.73;5.43;;;24.20;90.80;;;;;;4928082;29;20040;-76
2023/09/08 09:24:47;;;;;;;6.38;5.10;;;24.20;90.80;;;;;;4928933;29;20373;-76
2023/09/08 09:27:30;;;;;;;9.70;5.65;;;24.30;90.50;;;;;;4944362;29;20316;-79
2023/09/08 09:29:58;;;;;;;10.70;5.32;;;24.40;90.20;;;;;;4929211;29;20078;-76
2023/09/08 09:32:29;;;;;;;9.35;5.78;;;24.60;89.60;;;;;;4930042;29;20364;-76
2023/09/08 09:35:00;;;;;;;9.73;5.50;;;24.60;89.40;;;;;;4929115;29;20328;-76
2023/09/08 09:37:29;;;;;;;7.80;5.38;;;24.70;89.60;;;;;;4928422;29;20119;-76
2023/09/08 09:39:55;;;;;;;10.57;5.57;;;24.80;88.90;;;;;;4929882;29;20067;-76
2023/09/08 09:42:24;;;;;;;9.48;5.07;;;24.90;88.60;;;;;;4942668;29;20055;-76
2023/09/08 09:44:53;;;;;;;9.18;5.13;;;24.90;88.30;;;;;;4933778;29;20314;-76
2023/09/08 09:47:37;;;;;;;9.95;5.28;;;25.00;87.70;;;;;;4929066;29;20115;-76
2023/09/08 09:50:03;;;;;;;7.82;4.97;;;25.10;87.00;;;;;;4929351;29;20031;-76
2023/09/08 09:52:48;;;;;;;6.90;4.57;;;25.10;86.70;;;;;;4924141;29;20142;-76
2023/09/08 09:55:17;;;;;;;10.02;4.72;;;25.20;86.10;;;;;;4947754;29;20245;-76
2023/09/08 09:57:54;;;;;;;9.63;5.05;;;25.30;85.50;;;;;;4947815;29;20103;-77
2023/09/08 10:00:24;;;;;;;7.07;4.85;;;25.50;85.30;;;;;;4947931;29;20027;-76
2023/09/08 10:02:51;;;;;;;6.55;5.25;;;25.50;84.50;;;;;;4947907;29;20078;-76
2023/09/08 10:05:18;;;;;;;6.53;4.93;;;25.60;84.30;;;;;;4931306;29;20110;-76
2023/09/08 10:08:07;;;;;;;9.63;5.20;;;25.60;83.60;;;;;;4935430;29;20038;-76
2023/09/08 10:10:34;;;;;;;8.68;4.75;;;25.70;83.40;;;;;;4922996;29;20325;-76
2023/09/08 10:13:10;;;;;;;8.15;4.90;;;25.90;83.20;;;;;;4931316;29;20031;-76
2023/09/08 10:15:37;;;;;;;6.65;4.78;;;26.00;83.40;;;;;;4947696;29;20313;-77
2023/09/08 10:18:09;;;;;;;9.07;5.10;;;26.20;82.90;;;;;;4933286;29;20333;-75
2023/09/08 10:20:38;;;;;;;6.25;4.60;;;26.20;82.20;;;;;;4929222;29;20036;-75
2023/09/08 10:23:10;;;;;;;8.35;4.55;;;26.20;81.20;;;;;;4928042;29;20254;-76
2023/09/08 10:25:43;;;;;;;8.80;4.25;;;26.30;81.50;;;;;;4943990;29;20044;-77
2023/09/08 10:28:10;;;;;;;8.60;4.97;;;26.40;81.10;;;;;;4927670;29;20047;-75
2023/09/08 10:30:38;;;;;;;6.93;4.30;;;26.60;80.00;;;;;;4929107;29;20036;-75
2023/09/08 10:33:06;;;;;;;5.65;4.15;;;26.70;80.00;;;;;;4928000;29;20031;-77
2023/09/08 10:35:32;;;;;;;7.72;4.55;;;26.70;79.50;;;;;;4943492;29;20248;-76
2023/09/08 10:38:28;;;;;;;6.72;4.15;;;26.80;78.60;;;;;;4928471;29;20040;-74
2023/09/08 10:41:15;;;;;;;6.60;4.22;;;26.90;79.20;;;;;;4905830;29;20330;-76
2023/09/08 10:44:00;;;;;;;8.25;3.95;;;27.10;78.50;;;;;;4909679;29;20369;-77
2023/09/08 10:46:27;;;;;;;6.78;4.20;;;27.20;77.70;;;;;;4946740;29;20035;-76
2023/09/08 10:48:54;;;;;;;6.28;4.22;;;27.40;77.40;;;;;;4946913;29;20055;-76
2023/09/08 10:51:22;;;;;;;8.07;4.05;;;27.40;78.00;;;;;;4946225;29;20027;-77
2023/09/08 10:53:51;;;;;;;4.72;3.97;;;27.60;77.70;;;;;;4947530;29;20043;-76
2023/09/08 10:56:18;;;;;;;8.90;4.45;;;27.70;76.70;;;;;;4941694;29;20270;-75
2023/09/08 10:58:50;;;;;;;7.13;4.25;;;27.80;76.50;;;;;;4946516;29;20019;-74
2023/09/08 11:01:26;;;;;;;7.20;4.00;;;27.90;77.30;;;;;;4947352;29;20040;-75
2023/09/08 11:03:54;;;;;;;7.70;4.47;;;28.00;76.60;;;;;;4931103;29;20325;-75
2023/09/08 11:06:30;;;;;;;6.72;4.13;;;28.20;76.00;;;;;;4945629;29;20046;-75
2023/09/08 11:08:56;;;;;;;6.55;4.60;;;28.80;75.00;;;;;;4943152;29;20036;-74
2023/09/08 11:11:23;;;;;;;;;;;29.40;74.50;;;;;;4943607;29;20076;-74
2023/09/08 11:13:51;;;;;;;7.43;4.20;;;29.90;72.90;;;;;;4927028;29;20145;-73
2023/09/08 11:16:22;;;;;;;5.05;4.55;;;30.30;72.40;;;;;;4926423;29;20258;-76
2023/09/08 11:18:52;;;;;;;7.03;4.38;;;30.80;70.90;;;;;;4927544;29;20408;-75
2023/09/08 11:21:24;;;;;;;7.55;3.92;;;31.40;69.80;;;;;;4911200;29;20067;-77
2023/09/08 11:23:53;;;;;;;8.15;4.00;;;32.40;68.90;;;;;;4928149;29;20046;-75
2023/09/08 11:26:19;;;;;;;5.80;3.72;;;33.60;65.80;;;;;;4911625;29;20040;-74
2023/09/08 11:28:49;;;;;;;5.50;3.90;;;34.70;63.50;;;;;;4913121;29;20028;-76
2023/09/08 11:31:15;;;;;;;5.07;3.65;;;34.90;61.50;;;;;;4911411;29;20231;-73
2023/09/08 11:33:41;;;;;;;5.80;3.50;;;35.10;61.50;;;;;;4915981;29;20103;-74
2023/09/08 11:36:14;;;;;;;4.70;3.35;;;36.10;60.70;;;;;;4933182;29;20043;-74
2023/09/08 11:38:42;;;;;;;5.45;3.67;;;37.10;58.80;;;;;;4932151;29;20051;-74
2023/09/08 11:41:07;;;;;;;;;;;37.50;57.70;;;;;;4927350;29;20036;-74
2023/09/08 11:43:34;;;;;;;5.60;3.55;;;38.00;56.30;;;;;;4926737;29;19919;-75
2023/09/08 11:46:00;;;;;;;7.90;3.90;;;37.60;56.10;;;;;;4926269;29;20028;-73
2023/09/08 11:48:26;;;;;;;5.63;3.65;;;37.90;55.60;;;;;;4910732;29;20042;-74
2023/09/08 11:50:55;;;;;;;5.38;3.45;;;38.60;55.20;;;;;;4910721;29;20043;-75
2023/09/08 11:53:22;;;;;;;5.65;3.67;;;38.80;54.80;;;;;;4927024;29;20032;-74
2023/09/08 11:55:50;;;;;;;4.53;3.30;;;38.80;54.30;;;;;;4910454;29;20039;-75
2023/09/08 11:58:18;;;;;;;4.97;3.47;;;39.50;54.20;;;;;;4941069;29;20067;-73
2023/09/08 12:00:45;;;;;;;7.10;3.97;;;39.50;54.00;;;;;;4927308;29;20035;-75
2023/09/08 12:03:13;;;;;;;5.05;3.85;;;39.60;53.30;;;;;;4925981;29;20043;-73
2023/09/08 12:05:39;;;;;;;4.35;3.50;;;39.90;52.80;;;;;;4910637;29;20043;-73
2023/09/08 12:08:05;;;;;;;4.22;3.60;;;40.00;52.10;;;;;;4931046;29;20040;-75
2023/09/08 12:10:38;;;;;;;3.90;3.05;;;40.10;52.30;;;;;;4925721;29;20036;-72
2023/09/08 12:13:04;;;;;;;5.10;3.63;;;41.00;51.60;;;;;;4926688;29;20373;-74
2023/09/08 12:15:40;;;;;;;4.03;3.35;;;41.50;51.40;;;;;;4929132;29;20039;-75
2023/09/08 12:18:08;;;;;;;4.88;3.45;;;41.80;50.20;;;;;;4926424;29;20094;-75
2023/09/08 12:20:36;;;;;;;4.57;3.20;;;41.80;49.60;;;;;;4941642;29;20107;-72
2023/09/08 12:23:04;;;;;;;4.13;3.40;;;41.30;50.20;;;;;;4926787;29;20016;-72
2023/09/08 12:25:33;;;;;;;3.97;3.35;;;42.20;49.70;;;;;;4926346;29;20111;-76
2023/09/08 12:28:00;;;;;;;5.20;3.20;;;42.40;49.80;;;;;;4926447;29;20060;-76
2023/09/08 12:30:32;;;;;;;4.80;3.38;;;42.80;49.10;;;;;;4941662;29;20034;-77
2023/09/08 12:32:59;;;;;;;3.47;2.97;;;43.30;48.50;;;;;;4926760;29;20040;-76
2023/09/08 12:35:26;;;;;;;3.72;2.72;;;43.70;47.70;;;;;;4925879;29;20214;-75
2023/09/08 12:38:04;;;;;;;4.13;2.97;;;43.10;48.10;;;;;;4941960;29;20028;-77
2023/09/08 12:40:32;;;;;;;5.20;3.30;;;43.10;47.60;;;;;;4926877;29;20048;-75
2023/09/08 12:42:58;;;;;;;6.10;2.90;;;43.30;47.70;;;;;;4925951;29;20048;-76
2023/09/08 12:45:26;;;;;;;3.97;3.30;;;42.90;47.50;;;;;;4927077;29;20028;-75
2023/09/08 12:47:54;;;;;;;5.32;3.00;;;42.80;47.50;;;;;;4941261;29;20118;-76
2023/09/08 12:50:20;;;;;;;5.90;3.03;;;43.20;47.70;;;;;;4925290;29;20258;-75
2023/09/08 12:52:46;;;;;;;3.97;3.28;;;43.10;47.10;;;;;;4925459;29;20036;-76
2023/09/08 12:55:12;;;;;;;9.23;3.40;;;43.70;46.50;;;;;;4924716;29;20024;-77
2023/09/08 12:57:38;;;;;;;4.22;3.20;;;44.10;46.30;;;;;;4925630;29;20246;-73
2023/09/08 13:00:04;;;;;;;3.78;3.25;;;44.10;46.70;;;;;;4925907;29;20027;-74
2023/09/08 13:02:30;;;;;;;;;;;44.40;46.20;;;;;;4941793;29;20028;-75
2023/09/08 13:04:57;;;;;;;4.82;3.20;;;45.20;45.50;;;;;;4925673;29;19918;-75
2023/09/08 13:07:23;;;;;;;3.92;3.20;;;45.80;45.00;;;;;;4928399;29;20278;-75
2023/09/08 13:09:50;;;;;;;5.10;3.50;;;45.90;44.60;;;;;;4945487;29;20031;-74
2023/09/08 13:12:16;;;;;;;4.68;2.60;;;45.70;44.70;;;;;;4943858;29;20039;-75
2023/09/08 13:14:43;;;;;;;4.53;3.22;;;46.00;44.80;;;;;;4944634;29;20095;-75
2023/09/08 13:17:10;;;;;;;3.00;2.70;;;46.50;44.20;;;;;;4925857;29;20207;-76
2023/09/08 13:19:37;;;;;;;3.30;2.72;;;46.80;44.50;;;;;;4909681;29;20349;-75
2023/09/08 13:22:04;;;;;;;4.97;3.05;;;46.80;43.60;;;;;;4926369;29;20044;-75
2023/09/08 13:24:33;;;;;;;3.63;2.50;;;47.90;43.60;;;;;;4926332;29;20044;-76
2023/09/08 13:27:00;;;;;;;4.03;3.00;;;47.80;43.80;;;;;;4909103;29;20035;-76
2023/09/08 13:29:30;;;;;;;5.57;3.22;;;47.70;43.10;;;;;;4925181;29;20032;-76
2023/09/08 13:31:57;;;;;;;4.03;2.90;;;48.40;42.70;;;;;;4909614;29;20051;-76
2023/09/08 13:34:23;;;;;;;3.70;3.00;;;48.80;42.40;;;;;;4909556;29;20027;-75
2023/09/08 13:36:49;;;;;;;3.58;2.95;;;48.80;42.00;;;;;;4926283;29;20321;-75
2023/09/08 13:39:15;;;;;;;7.07;3.13;;;48.70;41.50;;;;;;4925801;29;20076;-76
2023/09/08 13:41:49;;;;;;;3.95;2.90;;;48.70;41.80;;;;;;4924998;29;20036;-74
2023/09/08 13:44:16;;;;;;;5.70;2.90;;;49.10;41.60;;;;;;4933366;29;20389;-76
2023/09/08 13:46:42;;;;;;;5.13;3.28;;;48.90;41.30;;;;;;4925109;29;20047;-74
2023/09/08 13:49:08;;;;;;;4.43;3.00;;;49.10;41.30;;;;;;4925541;29;20032;-75
2023/09/08 13:51:33;;;;;;;3.77;2.57;;;48.70;41.50;;;;;;4925904;29;20032;-75
2023/09/08 13:54:00;;;;;;;4.57;2.70;;;49.00;41.50;;;;;;4925595;29;20098;-78
2023/09/08 13:56:26;;;;;;;3.45;3.10;;;49.10;40.70;;;;;;4909381;29;20499;-75
2023/09/08 13:58:52;;;;;;;4.05;2.90;;;49.10;40.40;;;;;;4909009;29;20040;-75
2023/09/08 14:01:18;;;;;;;5.55;2.83;;;49.30;40.90;;;;;;4908783;29;20148;-78
2023/09/08 14:03:43;;;;;;;3.47;2.40;;;49.50;40.80;;;;;;4926208;29;20063;-76
2023/09/08 14:06:10;;;;;;;4.15;2.53;;;49.50;40.80;;;;;;4925594;29;20108;-76
2023/09/08 14:08:36;;;;;;;4.18;2.70;;;49.10;40.70;;;;;;4921465;29;20032;-76
2023/09/08 14:11:01;;;;;;;6.05;3.15;;;49.00;41.00;;;;;;4912465;29;20039;-75
2023/09/08 14:13:33;;;;;;;3.57;2.70;;;49.20;40.80;;;;;;4929919;29;20046;-75
2023/09/08 14:15:59;;;;;;;3.95;2.78;;;49.10;40.30;;;;;;4912177;29;20443;-74
2023/09/08 14:18:25;;;;;;;4.17;2.63;;;49.00;40.20;;;;;;4929568;29;20055;-77
2023/09/08 14:20:53;;;;;;;4.40;2.83;;;48.60;40.40;;;;;;4947404;29;20510;-76
2023/09/08 14:23:19;;;;;;;3.28;2.58;;;49.00;40.40;;;;;;4947663;29;20040;-75
2023/09/08 14:25:45;;;;;;;4.57;2.90;;;48.90;40.20;;;;;;4948283;29;20051;-75
2023/09/08 14:28:10;;;;;;;4.53;2.70;;;49.00;40.50;;;;;;4948006;29;20333;-74
2023/09/08 14:30:36;;;;;;;4.47;2.60;;;48.60;40.30;;;;;;4948117;29;20036;-75
2023/09/08 14:33:02;;;;;;;3.13;2.60;;;48.60;40.30;;;;;;4948088;29;20050;-75
2023/09/08 14:35:29;;;;;;;;;;;49.00;40.30;;;;;;4947268;29;20028;-77
2023/09/08 14:37:54;;;;;;;;;;;49.10;40.10;;;;;;4947386;29;20149;-74
2023/09/08 14:40:22;;;;;;;3.65;2.70;;;49.80;39.40;;;;;;4946033;29;19921;-73
2023/09/08 14:42:48;;;;;;;3.80;3.10;;;49.70;39.50;;;;;;4946687;29;20055;-75
2023/09/08 14:45:14;;;;;;;5.57;2.57;;;49.40;39.70;;;;;;4928490;29;20107;-76
2023/09/08 14:47:39;;;;;;;6.73;3.10;;;49.20;40.00;;;;;;4928014;29;20028;-76
2023/09/08 14:50:06;;;;;;;4.90;2.87;;;49.30;39.60;;;;;;4928302;29;20057;-75
2023/09/08 14:52:31;;;;;;;3.10;2.70;;;49.90;39.50;;;;;;4928695;29;20337;-77
2023/09/08 14:54:58;;;;;;;4.03;2.90;;;49.80;39.10;;;;;;4927964;29;20097;-75
2023/09/08 14:57:24;;;;;;;6.47;3.05;;;49.20;38.70;;;;;;4932845;29;20183;-75
2023/09/08 15:00:09;;;;;;;5.73;2.33;;;50.00;40.20;;;;;;4935968;29;20097;-76
2023/09/08 15:02:35;;;;;;;3.55;2.40;;;50.80;38.90;;;;;;4947588;29;20047;-76
2023/09/08 15:05:01;;;;;;;3.17;2.60;;;50.80;39.00;;;;;;4931383;29;20310;-76
2023/09/08 15:07:26;;;;;;;3.97;2.45;;;50.10;39.00;;;;;;4915035;29;20031;-75
2023/09/08 15:09:52;;;;;;;3.03;2.43;;;50.30;39.10;;;;;;4947322;29;20036;-76
2023/09/08 15:12:18;;;;;;;3.97;2.57;;;50.40;39.40;;;;;;4940944;29;20052;-75
2023/09/08 15:14:43;;;;;;;3.00;2.70;;;50.10;39.00;;;;;;4928312;29;20440;-75
2023/09/08 15:17:12;;;;;;;3.00;2.70;;;49.80;39.00;;;;;;4940200;29;20490;-76
2023/09/08 15:19:38;;;;;;;4.18;2.75;;;50.50;38.90;;;;;;4928219;29;20036;-77
2023/09/08 15:22:04;;;;;;;4.13;2.60;;;50.50;38.60;;;;;;4927749;29;20046;-76
2023/09/08 15:24:30;;;;;;;4.03;2.28;;;50.50;38.40;;;;;;4927796;29;20287;-76
2023/09/08 15:26:57;;;;;;;;;;;50.60;38.20;;;;;;4911669;29;20036;-76
2023/09/08 15:29:23;;;;;;;2.90;2.60;;;50.10;38.50;;;;;;4913402;29;19903;-77
2023/09/08 15:31:49;;;;;;;4.45;2.50;;;50.70;38.70;;;;;;4928044;29;20328;-77
2023/09/08 15:34:14;;;;;;;4.18;2.70;;;50.50;38.30;;;;;;4927616;29;20035;-75
2023/09/08 15:36:40;;;;;;;3.42;2.47;;;50.90;38.40;;;;;;4927019;29;20098;-75
2023/09/08 15:39:06;;;;;;;6.37;2.67;;;50.60;38.50;;;;;;4926384;29;20330;-74
2023/09/08 15:41:32;;;;;;;4.40;2.63;;;50.60;38.00;;;;;;4927889;29;20514;-75
2023/09/08 15:43:58;;;;;;;4.10;2.85;;;49.80;38.30;;;;;;4927211;29;20055;-74
2023/09/08 15:46:24;;;;;;;3.65;2.65;;;49.60;38.70;;;;;;4926505;29;20306;-75
2023/09/08 15:48:50;;;;;;;3.47;2.53;;;49.80;38.50;;;;;;4927770;29;20050;-76
2023/09/08 15:51:15;;;;;;;4.20;2.60;;;49.80;38.40;;;;;;4942200;29;20029;-76
2023/09/08 15:53:41;;;;;;;3.73;2.70;;;49.40;38.40;;;;;;4927830;29;20198;-74
2023/09/08 15:56:08;;;;;;;4.53;2.60;;;49.00;38.70;;;;;;4927790;29;20302;-74
2023/09/08 15:58:35;;;;;;;4.80;2.50;;;49.20;39.10;;;;;;4932223;29;20032;-74
2023/09/08 16:01:16;;;;;;;4.97;2.85;;;49.30;39.00;;;;;;4933445;29;20039;-74
2023/09/08 16:03:42;;;;;;;4.28;2.97;;;49.40;39.20;;;;;;4933572;29;20330;-75
2023/09/08 16:06:08;;;;;;;3.25;2.33;;;49.30;39.30;;;;;;4938991;29;20024;-77
2023/09/08 16:08:34;;;;;;;5.68;2.55;;;49.50;38.60;;;;;;4950442;29;20042;-74
2023/09/08 16:11:03;;;;;;;2.88;2.50;;;49.40;38.90;;;;;;4946463;29;20039;-75
2023/09/08 16:13:32;;;;;;;3.72;2.60;;;48.90;39.10;;;;;;4946474;29;20278;-75
2023/09/08 16:15:59;;;;;;;3.60;2.47;;;48.80;39.20;;;;;;4941328;29;20048;-75
2023/09/08 16:18:24;;;;;;;4.17;2.97;;;49.00;39.70;;;;;;4927102;29;20032;-72
2023/09/08 16:20:50;;;;;;;3.97;2.83;;;48.60;39.60;;;;;;4927333;29;20040;-77
2023/09/08 16:23:42;;;;;;;3.22;2.75;;;48.00;40.30;;;;;;4926386;29;20123;-77
2023/09/08 16:26:16;;;;;;;5.65;2.60;;;48.00;40.10;;;;;;4871162;29;20037;-76
2023/09/08 16:28:45;;;;;;;3.95;3.05;;;47.90;40.10;;;;;;4937037;29;20036;-75
2023/09/08 16:31:16;;;;;;;4.13;2.50;;;47.80;40.30;;;;;;4925847;29;20020;-77
2023/09/08 16:33:47;;;;;;;5.30;2.60;;;47.80;40.60;;;;;;4926936;29;20046;-75
2023/09/08 16:36:13;;;;;;;4.88;2.70;;;47.40;40.40;;;;;;4926490;29;20036;-79
2023/09/08 16:38:38;;;;;;;5.38;3.33;;;47.40;40.30;;;;;;4926625;29;20032;-78
2023/09/08 16:41:04;;;;;;;4.32;2.90;;;47.50;40.70;;;;;;4926377;29;20028;-78
2023/09/08 16:43:35;;;;;;;4.72;2.90;;;46.90;41.00;;;;;;4941043;29;20052;-76
2023/09/08 16:46:01;;;;;;;4.30;2.90;;;46.80;41.70;;;;;;4908841;29;20108;-78
2023/09/08 16:48:26;;;;;;;4.47;2.97;;;46.60;41.20;;;;;;4926560;29;20020;-77
2023/09/08 16:50:52;;;;;;;3.38;2.92;;;46.20;41.30;;;;;;4926600;29;20308;-79
2023/09/08 16:53:18;;;;;;;3.40;2.72;;;46.00;41.70;;;;;;4924863;29;20256;-75
2023/09/08 16:55:43;;;;;;;3.92;2.72;;;45.40;41.80;;;;;;4941378;29;20032;-76
2023/09/08 16:58:10;;;;;;;4.80;3.22;;;44.20;43.10;;;;;;4925996;29;20229;-77
2023/09/08 17:00:36;;;;;;;3.83;2.67;;;42.70;44.00;;;;;;4925491;29;20144;-77
2023/09/08 17:03:02;;;;;;;4.45;2.83;;;41.30;45.60;;;;;;4926017;29;20238;-78
2023/09/08 17:05:28;;;;;;;3.87;3.27;;;39.90;46.50;;;;;;4926576;29;20056;-78
2023/09/08 17:07:56;;;;;;;5.30;3.15;;;38.60;47.80;;;;;;4932615;29;20024;-77
2023/09/08 17:10:48;;;;;;;6.05;3.28;;;37.70;49.30;;;;;;4944739;29;20031;-77
2023/09/08 17:13:26;;;;;;;4.68;3.28;;;36.60;49.50;;;;;;4944569;29;20032;-76
2023/09/08 17:15:51;;;;;;;5.53;3.63;;;35.90;50.30;;;;;;4936199;29;20150;-75
2023/09/08 17:18:20;;;;;;;7.28;3.50;;;35.30;50.90;;;;;;4941293;29;20040;-75
2023/09/08 17:20:52;;;;;;;4.20;3.30;;;34.90;52.40;;;;;;4945583;29;20023;-78
2023/09/08 17:23:18;;;;;;;5.13;3.45;;;34.60;52.30;;;;;;4944983;29;20046;-78
2023/09/08 17:25:44;;;;;;;6.60;3.47;;;34.20;53.30;;;;;;4944118;29;20031;-77
2023/09/08 17:28:22;;;;;;;4.00;3.45;;;34.00;53.60;;;;;;4945170;29;20071;-75
2023/09/08 17:31:10;;;;;;;4.68;3.17;;;33.80;53.70;;;;;;4945064;29;20055;-76
2023/09/08 17:33:45;;;;;;;5.20;3.47;;;33.60;53.80;;;;;;4944030;29;20063;-74
2023/09/08 17:36:32;;;;;;;4.50;3.28;;;33.30;54.60;;;;;;4944896;29;20038;-76
2023/09/08 17:39:05;;;;;;;5.78;3.53;;;33.00;55.00;;;;;;4920066;29;20058;-75
2023/09/08 17:41:47;;;;;;;6.72;3.63;;;32.70;55.70;;;;;;4944287;29;20031;-75
2023/09/08 17:44:17;;;;;;;5.85;3.83;;;32.50;55.70;;;;;;4936717;29;20047;-76
2023/09/08 17:46:52;;;;;;;6.85;4.25;;;32.30;56.50;;;;;;4929956;29;20349;-75
2023/09/08 17:49:20;;;;;;;11.52;10.43;;;32.00;57.20;;;;;;4923402;29;20076;-75
2023/09/08 17:51:45;;;;;;;10.07;5.47;;;31.80;57.80;;;;;;4928677;29;20072;-77
2023/09/08 17:54:38;;;;;;;6.78;5.30;;;31.60;58.30;;;;;;4929416;29;20104;-76
2023/09/08 17:57:14;;;;;;;6.65;5.03;;;31.30;59.00;;;;;;4929082;29;20258;-75
2023/09/08 17:59:43;;;;;;;9.68;6.85;;;30.90;59.90;;;;;;4929815;29;20039;-75